createdAt,value
2018-12-05T00:00:31.216Z,1022.40
2018-12-05T00:01:32.061Z,1022.39
2018-12-05T00:02:32.069Z,1022.40
2018-12-05T00:03:31.631Z,1022.40
2018-12-05T00:04:31.068Z,1022.42
2018-12-05T00:05:31.123Z,1022.44
2018-12-05T00:06:31.040Z,1022.45
2018-12-05T00:07:30.970Z,1022.45
2018-12-05T00:08:30.933Z,1022.45
2018-12-05T00:09:30.949Z,1022.45
2018-12-05T00:10:31.571Z,1022.44
2018-12-05T00:11:30.821Z,1022.45
2018-12-05T00:12:30.786Z,1022.48
2018-12-05T00:13:31.573Z,1022.49
2018-12-05T00:14:30.783Z,1022.49
2018-12-05T00:15:31.565Z,1022.49
2018-12-05T00:16:31.570Z,1022.48
2018-12-05T00:17:31.565Z,1022.48
2018-12-05T00:18:31.586Z,1022.50
2018-12-05T00:19:30.606Z,1022.50
2018-12-05T00:20:31.068Z,1022.50
2018-12-05T00:21:31.067Z,1022.48
2018-12-05T00:22:30.436Z,1022.51
2018-12-05T00:23:31.062Z,1022.49
2018-12-05T00:24:30.410Z,1022.55
2018-12-05T00:25:30.673Z,1022.59
2018-12-05T00:26:30.283Z,1022.59
2018-12-05T00:27:31.064Z,1022.63
2018-12-05T00:28:30.215Z,1022.61
2018-12-05T00:29:30.176Z,1022.65
2018-12-05T00:30:30.620Z,1022.60
2018-12-05T00:31:30.667Z,1022.63
2018-12-05T00:32:30.083Z,1022.69
2018-12-05T00:33:30.045Z,1022.67
2018-12-05T00:34:30.010Z,1022.71
2018-12-05T00:35:29.962Z,1022.68
2018-12-05T00:36:29.990Z,1022.70
2018-12-05T00:37:29.896Z,1022.71
2018-12-05T00:38:30.572Z,1022.71
2018-12-05T00:39:29.817Z,1022.70
2018-12-05T00:40:29.784Z,1022.68
2018-12-05T00:41:29.798Z,1022.68
2018-12-05T00:42:30.560Z,1022.67
2018-12-05T00:43:30.573Z,1022.72
2018-12-05T00:44:29.639Z,1022.74
2018-12-05T00:45:29.604Z,1022.73
2018-12-05T00:46:29.626Z,1022.74
2018-12-05T00:47:29.624Z,1022.73
2018-12-05T00:48:29.509Z,1022.69
2018-12-05T00:49:30.067Z,1022.67
2018-12-05T00:50:29.423Z,1022.69
2018-12-05T00:51:29.387Z,1022.75
2018-12-05T00:52:29.681Z,1022.75
2018-12-05T00:53:30.063Z,1022.78
2018-12-05T00:54:29.287Z,1022.81
2018-12-05T00:55:29.287Z,1022.83
2018-12-05T00:56:29.620Z,1022.84
2018-12-05T00:57:29.223Z,1022.87
2018-12-05T00:58:30.063Z,1022.88
2018-12-05T00:59:29.104Z,1022.88
2018-12-05T01:00:29.138Z,1022.87
2018-12-05T01:01:29.068Z,1022.85
2018-12-05T01:02:29.052Z,1022.90
2018-12-05T01:03:28.960Z,1022.91
2018-12-05T01:04:28.927Z,1022.91
2018-12-05T01:05:28.955Z,1022.91
2018-12-05T01:06:28.866Z,1022.94
2018-12-05T01:07:28.842Z,1022.97
2018-12-05T01:08:29.565Z,1022.93
2018-12-05T01:09:29.566Z,1022.99
2018-12-05T01:10:29.119Z,1022.97
2018-12-05T01:11:29.566Z,1022.96
2018-12-05T01:12:28.651Z,1023.00
2018-12-05T01:13:29.570Z,1023.02
2018-12-05T01:14:28.616Z,1023.00
2018-12-05T01:15:28.527Z,1022.98
2018-12-05T01:16:28.493Z,1023.02
2018-12-05T01:17:29.064Z,1023.00
2018-12-05T01:18:29.065Z,1023.04
2018-12-05T01:19:28.623Z,1023.03
2018-12-05T01:20:28.404Z,1023.03
2018-12-05T01:21:29.077Z,1023.04
2018-12-05T01:22:28.275Z,1023.05
2018-12-05T01:23:29.068Z,1023.01
2018-12-05T01:24:28.213Z,1022.99
2018-12-05T01:25:28.641Z,1022.99
2018-12-05T01:26:28.144Z,1022.99
2018-12-05T01:27:28.151Z,1022.98
2018-12-05T01:28:28.068Z,1022.96
2018-12-05T01:29:28.580Z,1022.93
2018-12-05T01:30:28.061Z,1022.94
2018-12-05T01:31:27.967Z,1022.94
2018-12-05T01:32:28.581Z,1022.94
2018-12-05T01:33:27.891Z,1022.93
2018-12-05T01:34:27.850Z,1022.93
2018-12-05T01:35:27.856Z,1022.95
2018-12-05T01:36:28.117Z,1022.97
2018-12-05T01:37:27.763Z,1022.98
2018-12-05T01:38:27.728Z,1022.94
2018-12-05T01:39:27.743Z,1022.95
2018-12-05T01:40:27.656Z,1022.95
2018-12-05T01:41:27.653Z,1022.96
2018-12-05T01:42:28.072Z,1022.94
2018-12-05T01:43:27.555Z,1022.98
2018-12-05T01:44:27.484Z,1023.00
2018-12-05T01:45:28.074Z,1022.98
2018-12-05T01:46:27.475Z,1023.01
2018-12-05T01:47:27.741Z,1023.00
2018-12-05T01:48:28.071Z,1022.99
2018-12-05T01:49:28.079Z,1023.01
2018-12-05T01:50:28.065Z,1023.01
2018-12-05T01:51:27.243Z,1023.03
2018-12-05T01:52:27.627Z,1023.03
2018-12-05T01:53:28.073Z,1023.01
2018-12-05T01:54:28.067Z,1022.99
2018-12-05T01:55:28.074Z,1022.98
2018-12-05T01:56:27.565Z,1023.01
2018-12-05T01:57:28.628Z,1023.00
2018-12-05T01:58:27.001Z,1023.03
2018-12-05T01:59:27.622Z,1022.99
2018-12-05T02:00:26.919Z,1023.03
2018-12-05T02:01:26.917Z,1023.01
2018-12-05T02:02:26.890Z,1023.03
2018-12-05T02:03:27.569Z,1023.05
2018-12-05T02:04:26.781Z,1023.04
2018-12-05T02:05:27.571Z,1023.04
2018-12-05T02:06:26.699Z,1023.06
2018-12-05T02:07:26.737Z,1023.04
2018-12-05T02:08:26.631Z,1023.00
2018-12-05T02:09:27.569Z,1023.01
2018-12-05T02:10:27.064Z,1023.04
2018-12-05T02:11:26.519Z,1023.07
2018-12-05T02:12:26.550Z,1023.06
2018-12-05T02:13:26.453Z,1023.10
2018-12-05T02:14:27.068Z,1023.13
2018-12-05T02:15:26.376Z,1023.08
2018-12-05T02:16:27.232Z,1023.12
2018-12-05T02:17:26.366Z,1023.08
2018-12-05T02:18:26.273Z,1023.08
2018-12-05T02:19:27.105Z,1023.09
2018-12-05T02:20:27.071Z,1023.11
2018-12-05T02:21:26.160Z,1023.09
2018-12-05T02:22:26.165Z,1023.09
2018-12-05T02:23:26.097Z,1023.13
2018-12-05T02:24:26.117Z,1023.10
2018-12-05T02:25:26.019Z,1023.14
2018-12-05T02:26:25.981Z,1023.10
2018-12-05T02:27:25.945Z,1023.09
2018-12-05T02:28:26.132Z,1023.12
2018-12-05T02:29:25.889Z,1023.13
2018-12-05T02:30:25.852Z,1023.12
2018-12-05T02:31:25.811Z,1023.12
2018-12-05T02:32:26.576Z,1023.12
2018-12-05T02:33:26.128Z,1023.15
2018-12-05T02:34:25.696Z,1023.17
2018-12-05T02:35:26.134Z,1023.22
2018-12-05T02:36:25.629Z,1023.19
2018-12-05T02:37:26.574Z,1023.23
2018-12-05T02:38:25.596Z,1023.22
2018-12-05T02:39:26.076Z,1023.17
2018-12-05T02:40:25.482Z,1023.21
2018-12-05T02:41:25.442Z,1023.24
2018-12-05T02:42:25.444Z,1023.19
2018-12-05T02:43:25.634Z,1023.22
2018-12-05T02:44:25.351Z,1023.23
2018-12-05T02:45:25.303Z,1023.22
2018-12-05T02:46:25.298Z,1023.21
2018-12-05T02:47:26.078Z,1023.18
2018-12-05T02:48:25.193Z,1023.20
2018-12-05T02:49:26.091Z,1023.24
2018-12-05T02:50:26.076Z,1023.22
2018-12-05T02:51:25.139Z,1023.19
2018-12-05T02:52:25.048Z,1023.20
2018-12-05T02:53:25.575Z,1023.20
2018-12-05T02:54:25.021Z,1023.20
2018-12-05T02:55:24.944Z,1023.22
2018-12-05T02:56:24.898Z,1023.22
2018-12-05T02:57:25.571Z,1023.29
2018-12-05T02:58:25.572Z,1023.24
2018-12-05T02:59:24.849Z,1023.25
2018-12-05T03:00:25.593Z,1023.28
2018-12-05T03:01:24.724Z,1023.28
2018-12-05T03:02:25.575Z,1023.29
2018-12-05T03:03:24.688Z,1023.33
2018-12-05T03:04:24.658Z,1023.29
2018-12-05T03:05:24.572Z,1023.31
2018-12-05T03:06:24.600Z,1023.29
2018-12-05T03:07:24.504Z,1023.31
2018-12-05T03:08:24.466Z,1023.32
2018-12-05T03:09:24.638Z,1023.33
2018-12-05T03:10:24.397Z,1023.35
2018-12-05T03:11:25.142Z,1023.39
2018-12-05T03:12:24.331Z,1023.38
2018-12-05T03:13:24.332Z,1023.37
2018-12-05T03:14:24.308Z,1023.37
2018-12-05T03:15:24.218Z,1023.41
2018-12-05T03:16:24.644Z,1023.41
2018-12-05T03:17:24.145Z,1023.41
2018-12-05T03:18:24.127Z,1023.43
2018-12-05T03:19:24.079Z,1023.42
2018-12-05T03:20:24.568Z,1023.40
2018-12-05T03:21:24.089Z,1023.40
2018-12-05T03:22:24.578Z,1023.40
2018-12-05T03:23:24.583Z,1023.42
2018-12-05T03:24:24.568Z,1023.41
2018-12-05T03:25:23.855Z,1023.44
2018-12-05T03:26:23.871Z,1023.46
2018-12-05T03:27:24.569Z,1023.44
2018-12-05T03:28:24.575Z,1023.49
2018-12-05T03:29:24.124Z,1023.47
2018-12-05T03:30:23.678Z,1023.46
2018-12-05T03:31:24.597Z,1023.48
2018-12-05T03:32:23.655Z,1023.47
2018-12-05T03:33:24.102Z,1023.51
2018-12-05T03:34:24.078Z,1023.51
2018-12-05T03:35:24.082Z,1023.53
2018-12-05T03:36:23.637Z,1023.50
2018-12-05T03:37:23.419Z,1023.52
2018-12-05T03:38:23.389Z,1023.52
2018-12-05T03:39:23.345Z,1023.49
2018-12-05T03:40:24.098Z,1023.54
2018-12-05T03:41:23.323Z,1023.54
2018-12-05T03:42:23.277Z,1023.56
2018-12-05T03:43:24.069Z,1023.53
2018-12-05T03:44:26.115Z,1023.60
2018-12-05T03:45:23.151Z,1023.57
2018-12-05T03:46:23.091Z,1023.55
2018-12-05T03:47:23.108Z,1023.56
2018-12-05T03:48:23.580Z,1023.59
2018-12-05T03:49:23.573Z,1023.58
2018-12-05T03:50:22.943Z,1023.60
2018-12-05T03:51:23.100Z,1023.62
2018-12-05T03:52:22.880Z,1023.60
2018-12-05T03:53:23.572Z,1023.64
2018-12-05T03:54:23.591Z,1023.61
2018-12-05T03:55:23.603Z,1023.64
2018-12-05T03:56:23.150Z,1023.64
2018-12-05T03:57:22.698Z,1023.60
2018-12-05T03:58:22.680Z,1023.55
2018-12-05T03:59:22.620Z,1023.62
2018-12-05T04:00:22.589Z,1023.56
2018-12-05T04:01:22.612Z,1023.61
2018-12-05T04:02:22.521Z,1023.53
2018-12-05T04:03:23.072Z,1023.57
2018-12-05T04:04:22.436Z,1023.57
2018-12-05T04:05:23.072Z,1023.59
2018-12-05T04:06:22.650Z,1023.57
2018-12-05T04:07:22.333Z,1023.56
2018-12-05T04:08:22.296Z,1023.57
2018-12-05T04:09:22.275Z,1023.52
2018-12-05T04:10:22.219Z,1023.59
2018-12-05T04:11:22.230Z,1023.57
2018-12-05T04:12:22.148Z,1023.65
2018-12-05T04:13:23.075Z,1023.64
2018-12-05T04:14:22.077Z,1023.67
2018-12-05T04:15:22.044Z,1023.65
2018-12-05T04:16:22.052Z,1023.68
2018-12-05T04:17:22.015Z,1023.68
2018-12-05T04:18:21.952Z,1023.70
2018-12-05T04:19:21.893Z,1023.70
2018-12-05T04:20:21.862Z,1023.79
2018-12-05T04:21:21.826Z,1023.75
2018-12-05T04:22:21.840Z,1023.74
2018-12-05T04:23:21.752Z,1023.76
2018-12-05T04:24:21.718Z,1023.74
2018-12-05T04:25:21.685Z,1023.69
2018-12-05T04:26:21.635Z,1023.76
2018-12-05T04:27:21.645Z,1023.74
2018-12-05T04:28:21.618Z,1023.75
2018-12-05T04:29:21.611Z,1023.76
2018-12-05T04:30:21.526Z,1023.76
2018-12-05T04:31:21.474Z,1023.77
2018-12-05T04:32:22.075Z,1023.73
2018-12-05T04:33:21.448Z,1023.76
2018-12-05T04:34:21.359Z,1023.75
2018-12-05T04:35:22.078Z,1023.79
2018-12-05T04:36:21.297Z,1023.81
2018-12-05T04:37:21.270Z,1023.82
2018-12-05T04:38:21.278Z,1023.79
2018-12-05T04:39:21.218Z,1023.81
2018-12-05T04:40:21.139Z,1023.82
2018-12-05T04:41:21.102Z,1023.84
2018-12-05T04:42:21.071Z,1023.85
2018-12-05T04:43:21.603Z,1023.88
2018-12-05T04:44:21.042Z,1023.85
2018-12-05T04:45:20.951Z,1023.91
2018-12-05T04:46:20.958Z,1023.89
2018-12-05T04:47:20.885Z,1023.88
2018-12-05T04:48:20.898Z,1023.87
2018-12-05T04:49:21.126Z,1023.85
2018-12-05T04:50:20.771Z,1023.89
2018-12-05T04:51:21.139Z,1023.90
2018-12-05T04:52:21.622Z,1023.88
2018-12-05T04:53:20.670Z,1023.92
2018-12-05T04:54:20.698Z,1023.95
2018-12-05T04:55:20.629Z,1023.95
2018-12-05T04:56:21.076Z,1023.96
2018-12-05T04:57:20.516Z,1023.95
2018-12-05T04:58:21.095Z,1023.97
2018-12-05T04:59:21.087Z,1023.97
2018-12-05T05:00:20.447Z,1023.94
2018-12-05T05:01:20.602Z,1023.98
2018-12-05T05:02:20.385Z,1024.00
2018-12-05T05:03:20.305Z,1023.94
2018-12-05T05:04:21.108Z,1023.95
2018-12-05T05:05:20.637Z,1024.02
2018-12-05T05:06:20.193Z,1024.01
2018-12-05T05:07:20.158Z,1023.99
2018-12-05T05:08:21.077Z,1023.98
2018-12-05T05:09:20.141Z,1024.01
2018-12-05T05:10:20.049Z,1023.98
2018-12-05T05:11:20.141Z,1024.00
2018-12-05T05:12:20.676Z,1024.00
2018-12-05T05:13:19.935Z,1024.01
2018-12-05T05:14:20.194Z,1024.01
2018-12-05T05:15:20.196Z,1024.03
2018-12-05T05:16:20.581Z,1024.01
2018-12-05T05:17:20.639Z,1023.99
2018-12-05T05:18:20.643Z,1024.03
2018-12-05T05:19:20.600Z,1024.04
2018-12-05T05:20:20.135Z,1024.03
2018-12-05T05:21:20.584Z,1024.05
2018-12-05T05:22:20.588Z,1024.05
2018-12-05T05:23:19.615Z,1024.07
2018-12-05T05:24:19.769Z,1024.11
2018-12-05T05:25:21.714Z,1024.05
2018-12-05T05:26:19.457Z,1024.09
2018-12-05T05:27:20.078Z,1024.07
2018-12-05T05:28:19.399Z,1024.12
2018-12-05T05:29:19.493Z,1024.14
2018-12-05T05:30:19.317Z,1024.14
2018-12-05T05:31:19.282Z,1024.15
2018-12-05T05:32:19.243Z,1024.12
2018-12-05T05:33:19.209Z,1024.10
2018-12-05T05:34:19.210Z,1024.13
2018-12-05T05:35:19.178Z,1024.18
2018-12-05T05:36:20.086Z,1024.18
2018-12-05T05:37:19.065Z,1024.15
2018-12-05T05:38:19.024Z,1024.20
2018-12-05T05:39:19.679Z,1024.19
2018-12-05T05:40:18.988Z,1024.19
2018-12-05T05:41:18.962Z,1024.19
2018-12-05T05:42:19.583Z,1024.19
2018-12-05T05:43:18.847Z,1024.17
2018-12-05T05:44:18.812Z,1024.15
2018-12-05T05:45:19.147Z,1024.18
2018-12-05T05:46:19.584Z,1024.20
2018-12-05T05:47:18.762Z,1024.17
2018-12-05T05:48:18.657Z,1024.17
2018-12-05T05:49:19.586Z,1024.14
2018-12-05T05:50:18.644Z,1024.12
2018-12-05T05:51:18.553Z,1024.14
2018-12-05T05:52:18.645Z,1024.11
2018-12-05T05:53:19.085Z,1024.15
2018-12-05T05:54:19.078Z,1024.17
2018-12-05T05:55:18.496Z,1024.13
2018-12-05T05:56:19.079Z,1024.16
2018-12-05T05:57:18.647Z,1024.19
2018-12-05T05:58:18.333Z,1024.17
2018-12-05T05:59:18.257Z,1024.19
2018-12-05T06:00:19.185Z,1024.19
2018-12-05T06:01:18.178Z,1024.18
2018-12-05T06:02:20.288Z,1024.21
2018-12-05T06:03:19.085Z,1024.19
2018-12-05T06:04:18.587Z,1024.20
2018-12-05T06:05:18.610Z,1024.20
2018-12-05T06:06:18.086Z,1024.19
2018-12-05T06:07:17.968Z,1024.20
2018-12-05T06:08:17.937Z,1024.20
2018-12-05T06:09:17.951Z,1024.21
2018-12-05T06:10:17.858Z,1024.22
2018-12-05T06:11:18.586Z,1024.22
2018-12-05T06:12:17.784Z,1024.22
2018-12-05T06:13:17.748Z,1024.26
2018-12-05T06:14:17.765Z,1024.27
2018-12-05T06:15:18.589Z,1024.26
2018-12-05T06:16:18.677Z,1024.26
2018-12-05T06:17:18.607Z,1024.27
2018-12-05T06:18:17.588Z,1024.32
2018-12-05T06:19:17.592Z,1024.34
2018-12-05T06:20:17.517Z,1024.35
2018-12-05T06:21:17.457Z,1024.34
2018-12-05T06:22:17.465Z,1024.35
2018-12-05T06:23:18.083Z,1024.35
2018-12-05T06:24:17.675Z,1024.32
2018-12-05T06:25:18.105Z,1024.31
2018-12-05T06:26:18.091Z,1024.32
2018-12-05T06:27:17.242Z,1024.33
2018-12-05T06:28:17.405Z,1024.34
2018-12-05T06:29:17.341Z,1024.29
2018-12-05T06:30:17.647Z,1024.34
2018-12-05T06:31:17.096Z,1024.35
2018-12-05T06:32:17.607Z,1024.33
2018-12-05T06:33:17.588Z,1024.35
2018-12-05T06:34:16.995Z,1024.37
2018-12-05T06:35:17.133Z,1024.35
2018-12-05T06:36:17.144Z,1024.36
2018-12-05T06:37:17.581Z,1024.39
2018-12-05T06:38:16.835Z,1024.41
2018-12-05T06:39:17.608Z,1024.42
2018-12-05T06:40:16.764Z,1024.42
2018-12-05T06:41:16.786Z,1024.41
2018-12-05T06:42:16.730Z,1024.42
2018-12-05T06:43:16.666Z,1024.48
2018-12-05T06:44:16.627Z,1024.44
2018-12-05T06:45:16.582Z,1024.44
2018-12-05T06:46:16.589Z,1024.46
2018-12-05T06:47:16.509Z,1024.48
2018-12-05T06:48:16.477Z,1024.42
2018-12-05T06:49:16.435Z,1024.43
2018-12-05T06:50:16.402Z,1024.47
2018-12-05T06:51:16.417Z,1024.46
2018-12-05T06:52:16.336Z,1024.47
2018-12-05T06:53:16.337Z,1024.43
2018-12-05T06:54:17.168Z,1024.44
2018-12-05T06:55:16.221Z,1024.48
2018-12-05T06:56:16.185Z,1024.49
2018-12-05T06:57:16.185Z,1024.50
2018-12-05T06:58:16.107Z,1024.53
2018-12-05T06:59:16.071Z,1024.58
2018-12-05T07:00:16.028Z,1024.61
2018-12-05T07:01:16.000Z,1024.65
2018-12-05T07:02:16.023Z,1024.65
2018-12-05T07:03:15.921Z,1024.64
2018-12-05T07:04:15.891Z,1024.66
2018-12-05T07:05:15.865Z,1024.71
2018-12-05T07:06:15.813Z,1024.67
2018-12-05T07:07:15.826Z,1024.70
2018-12-05T07:08:15.735Z,1024.72
2018-12-05T07:09:15.705Z,1024.79
2018-12-05T07:10:16.589Z,1024.77
2018-12-05T07:11:15.638Z,1024.76
2018-12-05T07:12:15.647Z,1024.77
2018-12-05T07:13:15.560Z,1024.76
2018-12-05T07:14:15.562Z,1024.76
2018-12-05T07:15:15.489Z,1024.78
2018-12-05T07:16:15.448Z,1024.83
2018-12-05T07:17:15.412Z,1024.80
2018-12-05T07:18:15.375Z,1024.85
2018-12-05T07:19:15.748Z,1024.87
2018-12-05T07:20:15.309Z,1024.86
2018-12-05T07:21:15.268Z,1024.86
2018-12-05T07:22:15.253Z,1024.89
2018-12-05T07:23:15.203Z,1024.95
2018-12-05T07:24:15.249Z,1024.97
2018-12-05T07:25:15.120Z,1024.92
2018-12-05T07:26:15.092Z,1024.97
2018-12-05T07:27:15.047Z,1024.98
2018-12-05T07:28:15.013Z,1025.01
2018-12-05T07:29:15.017Z,1025.02
2018-12-05T07:30:14.945Z,1025.00
2018-12-05T07:31:14.903Z,1025.00
2018-12-05T07:32:14.951Z,1025.03
2018-12-05T07:33:14.885Z,1025.00
2018-12-05T07:34:14.796Z,1025.01
2018-12-05T07:35:14.819Z,1025.05
2018-12-05T07:36:15.592Z,1025.04
2018-12-05T07:37:14.686Z,1025.09
2018-12-05T07:38:19.309Z,1025.10
2018-12-05T07:39:14.616Z,1025.11
2018-12-05T07:40:14.659Z,1025.07
2018-12-05T07:41:14.538Z,1025.14
2018-12-05T07:42:14.508Z,1025.15
2018-12-05T07:43:15.156Z,1025.11
2018-12-05T07:44:14.428Z,1025.11
2018-12-05T07:45:14.483Z,1025.10
2018-12-05T07:46:14.411Z,1025.10
2018-12-05T07:47:14.323Z,1025.08
2018-12-05T07:48:14.290Z,1025.06
2018-12-05T07:49:14.284Z,1025.07
2018-12-05T07:50:15.825Z,1025.11
2018-12-05T07:51:14.228Z,1025.13
2018-12-05T07:52:14.187Z,1025.13
2018-12-05T07:53:14.104Z,1025.14
2018-12-05T07:54:14.088Z,1025.11
2018-12-05T07:55:14.040Z,1025.14
2018-12-05T07:56:13.999Z,1025.15
2018-12-05T07:57:14.005Z,1025.15
2018-12-05T07:58:13.951Z,1025.16
2018-12-05T07:59:13.895Z,1025.12
2018-12-05T08:00:13.847Z,1025.14
2018-12-05T08:01:13.875Z,1025.17
2018-12-05T08:02:13.785Z,1025.18
2018-12-05T08:03:13.737Z,1025.12
2018-12-05T08:04:13.704Z,1025.14
2018-12-05T08:05:13.675Z,1025.16
2018-12-05T08:06:13.773Z,1025.17
2018-12-05T08:07:13.594Z,1025.13
2018-12-05T08:08:13.567Z,1025.13
2018-12-05T08:09:13.537Z,1025.13
2018-12-05T08:10:13.485Z,1025.14
2018-12-05T08:11:13.516Z,1025.15
2018-12-05T08:12:13.423Z,1025.10
2018-12-05T08:13:13.397Z,1025.07
2018-12-05T08:14:14.099Z,1025.08
2018-12-05T08:15:14.090Z,1025.05
2018-12-05T08:16:13.386Z,1025.09
2018-12-05T08:17:13.275Z,1025.14
2018-12-05T08:18:15.077Z,1025.14
2018-12-05T08:19:13.156Z,1025.11
2018-12-05T08:20:13.118Z,1025.16
2018-12-05T08:21:13.086Z,1025.21
2018-12-05T08:22:13.104Z,1025.18
2018-12-05T08:23:13.010Z,1025.19
2018-12-05T08:24:12.977Z,1025.17
2018-12-05T08:25:12.941Z,1025.22
2018-12-05T08:26:12.909Z,1025.22
2018-12-05T08:27:12.931Z,1025.26
2018-12-05T08:28:12.895Z,1025.26
2018-12-05T08:29:12.791Z,1025.25
2018-12-05T08:30:12.760Z,1025.21
2018-12-05T08:31:12.724Z,1025.24
2018-12-05T08:32:12.741Z,1025.20
2018-12-05T08:33:12.663Z,1025.21
2018-12-05T08:34:12.615Z,1025.21
2018-12-05T08:35:12.648Z,1025.23
2018-12-05T08:36:12.542Z,1025.23
2018-12-05T08:37:12.508Z,1025.25
2018-12-05T08:38:12.481Z,1025.27
2018-12-05T08:39:12.439Z,1025.28
2018-12-05T08:40:12.454Z,1025.28
2018-12-05T08:41:12.368Z,1025.29
2018-12-05T08:42:13.092Z,1025.31
2018-12-05T08:43:12.286Z,1025.29
2018-12-05T08:44:12.301Z,1025.29
2018-12-05T08:45:12.316Z,1025.34
2018-12-05T08:46:12.185Z,1025.33
2018-12-05T08:47:12.182Z,1025.33
2018-12-05T08:48:12.115Z,1025.36
2018-12-05T08:49:12.078Z,1025.34
2018-12-05T08:50:12.095Z,1025.34
2018-12-05T08:51:12.045Z,1025.27
2018-12-05T08:52:11.967Z,1025.28
2018-12-05T08:53:11.932Z,1025.27
2018-12-05T08:54:11.899Z,1025.29
2018-12-05T08:55:11.865Z,1025.31
2018-12-05T08:56:11.880Z,1025.30
2018-12-05T08:57:12.498Z,1025.31
2018-12-05T08:58:11.762Z,1025.29
2018-12-05T08:59:11.718Z,1025.30
2018-12-05T09:00:11.692Z,1025.28
2018-12-05T09:01:11.698Z,1025.28
2018-12-05T09:02:11.615Z,1025.32
2018-12-05T09:03:11.575Z,1025.33
2018-12-05T09:04:11.538Z,1025.35
2018-12-05T09:05:11.510Z,1025.31
2018-12-05T09:06:11.569Z,1025.32
2018-12-05T09:07:11.438Z,1025.35
2018-12-05T09:08:11.398Z,1025.31
2018-12-05T09:09:11.371Z,1025.28
2018-12-05T09:10:11.339Z,1025.26
2018-12-05T09:11:11.358Z,1025.29
2018-12-05T09:12:11.253Z,1025.26
2018-12-05T09:13:11.224Z,1025.29
2018-12-05T09:14:11.186Z,1025.30
2018-12-05T09:15:11.198Z,1025.27
2018-12-05T09:16:11.112Z,1025.29
2018-12-05T09:17:11.130Z,1025.29
2018-12-05T09:18:11.051Z,1025.21
2018-12-05T09:19:11.010Z,1025.22
2018-12-05T09:20:11.599Z,1025.22
2018-12-05T09:21:11.885Z,1025.25
2018-12-05T09:22:11.155Z,1025.24
2018-12-05T09:23:11.621Z,1025.22
2018-12-05T09:24:10.837Z,1025.24
2018-12-05T09:25:10.799Z,1025.24
2018-12-05T09:26:10.761Z,1025.19
2018-12-05T09:27:10.772Z,1025.23
2018-12-05T09:28:10.687Z,1025.20
2018-12-05T09:29:10.657Z,1025.20
2018-12-05T09:30:10.671Z,1025.20
2018-12-05T09:31:10.630Z,1025.19
2018-12-05T09:32:10.547Z,1025.18
2018-12-05T09:33:10.514Z,1025.17
2018-12-05T09:34:10.501Z,1025.19
2018-12-05T09:35:10.456Z,1025.20
2018-12-05T09:36:10.472Z,1025.23
2018-12-05T09:37:11.108Z,1025.19
2018-12-05T09:38:10.383Z,1025.19
2018-12-05T09:39:10.318Z,1025.26
2018-12-05T09:40:10.269Z,1025.23
2018-12-05T09:41:10.285Z,1025.27
2018-12-05T09:42:10.253Z,1025.25
2018-12-05T09:43:10.162Z,1025.28
2018-12-05T09:44:10.146Z,1025.29
2018-12-05T09:45:10.172Z,1025.28
2018-12-05T09:46:10.095Z,1025.30
2018-12-05T09:47:15.916Z,1025.30
2018-12-05T09:48:10.045Z,1025.28
2018-12-05T09:49:10.043Z,1025.27
2018-12-05T09:50:09.978Z,1025.30
2018-12-05T09:51:09.893Z,1025.30
2018-12-05T09:52:09.924Z,1025.32
2018-12-05T09:53:09.899Z,1025.35
2018-12-05T09:54:09.780Z,1025.33
2018-12-05T09:55:09.747Z,1025.35
2018-12-05T09:56:09.733Z,1025.35
2018-12-05T09:57:09.742Z,1025.37
2018-12-05T09:58:09.647Z,1025.37
2018-12-05T09:59:09.613Z,1025.35
2018-12-05T10:00:09.578Z,1025.37
2018-12-05T10:01:09.549Z,1025.35
2018-12-05T10:02:09.557Z,1025.32
2018-12-05T10:03:09.489Z,1025.32
2018-12-05T10:04:09.498Z,1025.29
2018-12-05T10:05:09.411Z,1025.32
2018-12-05T10:06:09.365Z,1025.30
2018-12-05T10:07:09.336Z,1025.30
2018-12-05T10:08:09.336Z,1025.31
2018-12-05T10:09:09.320Z,1025.30
2018-12-05T10:10:09.228Z,1025.29
2018-12-05T10:11:09.200Z,1025.29
2018-12-05T10:12:09.167Z,1025.32
2018-12-05T10:13:09.169Z,1025.30
2018-12-05T10:14:09.137Z,1025.27
2018-12-05T10:15:09.065Z,1025.27
2018-12-05T10:16:09.031Z,1025.28
2018-12-05T10:17:08.996Z,1025.28
2018-12-05T10:18:08.993Z,1025.28
2018-12-05T10:19:08.924Z,1025.33
2018-12-05T10:20:08.930Z,1025.24
2018-12-05T10:21:09.179Z,1025.28
2018-12-05T10:22:08.818Z,1025.27
2018-12-05T10:23:08.790Z,1025.22
2018-12-05T10:24:08.755Z,1025.22
2018-12-05T10:25:08.728Z,1025.18
2018-12-05T10:26:08.736Z,1025.23
2018-12-05T10:27:08.650Z,1025.16
2018-12-05T10:28:08.677Z,1025.17
2018-12-05T10:29:08.583Z,1025.18
2018-12-05T10:30:08.545Z,1025.17
2018-12-05T10:31:08.511Z,1025.19
2018-12-05T10:32:08.479Z,1025.17
2018-12-05T10:33:08.490Z,1025.18
2018-12-05T10:34:08.415Z,1025.15
2018-12-05T10:35:09.106Z,1025.12
2018-12-05T10:36:08.344Z,1025.11
2018-12-05T10:37:08.369Z,1025.12
2018-12-05T10:38:08.278Z,1025.09
2018-12-05T10:39:08.240Z,1025.06
2018-12-05T10:40:09.096Z,1025.07
2018-12-05T10:41:09.098Z,1025.07
2018-12-05T10:42:08.680Z,1025.07
2018-12-05T10:43:08.152Z,1025.08
2018-12-05T10:44:08.071Z,1025.07
2018-12-05T10:45:08.042Z,1025.02
2018-12-05T10:46:08.010Z,1025.05
2018-12-05T10:47:08.021Z,1025.03
2018-12-05T10:48:07.938Z,1025.00
2018-12-05T10:49:07.969Z,1024.99
2018-12-05T10:50:07.884Z,1024.94
2018-12-05T10:51:07.840Z,1024.98
2018-12-05T10:52:07.811Z,1025.01
2018-12-05T10:53:07.776Z,1025.01
2018-12-05T10:54:07.783Z,1024.98
2018-12-05T10:55:07.701Z,1024.97
2018-12-05T10:56:07.673Z,1024.97
2018-12-05T10:57:07.658Z,1024.93
2018-12-05T10:58:07.610Z,1024.90
2018-12-05T10:59:07.619Z,1024.88
2018-12-05T11:00:07.537Z,1024.85
2018-12-05T11:01:07.552Z,1024.87
2018-12-05T11:02:07.494Z,1024.88
2018-12-05T11:03:07.476Z,1024.85
2018-12-05T11:04:07.457Z,1024.86
2018-12-05T11:05:07.427Z,1024.83
2018-12-05T11:06:07.339Z,1024.84
2018-12-05T11:07:07.314Z,1024.81
2018-12-05T11:08:07.349Z,1024.81
2018-12-05T11:09:07.296Z,1024.83
2018-12-05T11:10:07.274Z,1024.84
2018-12-05T11:11:07.168Z,1024.82
2018-12-05T11:12:07.131Z,1024.78
2018-12-05T11:13:07.246Z,1024.77
2018-12-05T11:14:07.148Z,1024.78
2018-12-05T11:15:07.036Z,1024.79
2018-12-05T11:16:07.036Z,1024.80
2018-12-05T11:17:06.969Z,1024.80
2018-12-05T11:18:06.931Z,1024.79
2018-12-05T11:19:06.951Z,1024.80
2018-12-05T11:20:06.962Z,1024.79
2018-12-05T11:21:06.855Z,1024.77
2018-12-05T11:22:06.800Z,1024.79
2018-12-05T11:23:06.778Z,1024.76
2018-12-05T11:24:07.190Z,1024.74
2018-12-05T11:25:06.709Z,1024.73
2018-12-05T11:26:06.689Z,1024.76
2018-12-05T11:27:06.655Z,1024.76
2018-12-05T11:28:06.600Z,1024.76
2018-12-05T11:29:06.696Z,1024.77
2018-12-05T11:30:06.559Z,1024.79
2018-12-05T11:31:06.504Z,1024.79
2018-12-05T11:32:06.476Z,1024.79
2018-12-05T11:33:06.486Z,1024.79
2018-12-05T11:34:06.446Z,1024.80
2018-12-05T11:35:06.374Z,1024.78
2018-12-05T11:36:06.394Z,1024.81
2018-12-05T11:37:06.309Z,1024.77
2018-12-05T11:38:06.270Z,1024.76
2018-12-05T11:39:06.236Z,1024.74
2018-12-05T11:40:06.277Z,1024.73
2018-12-05T11:41:06.191Z,1024.73
2018-12-05T11:42:06.181Z,1024.71
2018-12-05T11:43:06.113Z,1024.73
2018-12-05T11:44:06.136Z,1024.68
2018-12-05T11:45:06.043Z,1024.71
2018-12-05T11:46:06.009Z,1024.69
2018-12-05T11:47:05.973Z,1024.69
2018-12-05T11:48:05.948Z,1024.66
2018-12-05T11:49:05.989Z,1024.64
2018-12-05T11:50:05.876Z,1024.60
2018-12-05T11:51:05.841Z,1024.59
2018-12-05T11:52:05.836Z,1024.55
2018-12-05T11:53:05.777Z,1024.56
2018-12-05T11:54:05.791Z,1024.54
2018-12-05T11:55:05.762Z,1024.53
2018-12-05T11:56:05.688Z,1024.53
2018-12-05T11:57:05.647Z,1024.51
2018-12-05T11:58:05.609Z,1024.50
2018-12-05T11:59:05.626Z,1024.50
2018-12-05T12:00:05.546Z,1024.53
2018-12-05T12:01:05.558Z,1024.52
2018-12-05T12:02:05.481Z,1024.48
2018-12-05T12:03:05.564Z,1024.47
2018-12-05T12:04:05.415Z,1024.47
2018-12-05T12:05:05.426Z,1024.48